Time;durP1;ratioP1;P1;durP2;ratioP2;P2;SDS_P1;SDS_P2;PMS_P1;PMS_P2;Temp;Humidity;BMP_temperature;BMP_pressure;BME280_temperature;BME280_humidity;BME280_pressure;Samples;Min_cycle;Max_cycle;Signal;HPM_P1;HPM_P2
2022/07/12 00:01:08;;;;;;;2.33;1.17;;;23.70;72.10;;;;;;5043771;28;20048;-66
2022/07/12 00:03:34;;;;;;;1.60;0.95;;;23.70;72.30;;;;;;5043556;28;20041;-66
2022/07/12 00:06:01;;;;;;;2.33;1.13;;;23.70;72.00;;;;;;5045838;28;20053;-66
2022/07/12 00:08:27;;;;;;;1.85;1.02;;;23.60;71.80;;;;;;5077933;28;20071;-66
2022/07/12 00:10:53;;;;;;;2.92;1.00;;;23.60;72.00;;;;;;5047565;28;20212;-67
2022/07/12 00:13:19;;;;;;;1.10;0.90;;;23.60;72.90;;;;;;5047312;28;20054;-66
2022/07/12 00:15:45;;;;;;;1.55;0.93;;;23.50;72.50;;;;;;5047420;28;20052;-66
2022/07/12 00:18:11;;;;;;;1.42;0.88;;;23.50;72.30;;;;;;5047285;28;20021;-67
2022/07/12 00:20:37;;;;;;;0.93;0.85;;;23.40;72.50;;;;;;5047345;28;20033;-66
2022/07/12 00:23:03;;;;;;;0.88;0.88;;;23.40;72.50;;;;;;5079344;28;20021;-66
2022/07/12 00:25:29;;;;;;;2.75;1.30;;;23.40;72.50;;;;;;5047106;28;20095;-66
2022/07/12 00:27:55;;;;;;;1.73;0.85;;;23.40;72.90;;;;;;5045769;28;20025;-66
2022/07/12 00:30:21;;;;;;;1.67;0.73;;;23.30;72.80;;;;;;5047002;28;20209;-66
2022/07/12 00:32:47;;;;;;;1.40;1.10;;;23.30;72.90;;;;;;5062434;28;20026;-66
2022/07/12 00:35:14;;;;;;;4.78;1.13;;;23.30;72.70;;;;;;5046868;28;20084;-66
2022/07/12 00:37:40;;;;;;;5.07;0.95;;;23.30;72.80;;;;;;5079171;28;20024;-66
2022/07/12 00:40:08;;;;;;;3.35;0.82;;;23.20;72.80;;;;;;5046992;28;20030;-66
2022/07/12 00:42:36;;;;;;;1.50;0.90;;;23.10;73.00;;;;;;5078670;28;20030;-66
2022/07/12 00:45:03;;;;;;;2.30;1.23;;;23.10;73.20;;;;;;5046478;28;20037;-66
2022/07/12 00:47:46;;;;;;;1.60;1.00;;;23.10;73.30;;;;;;5062116;28;20067;-66
2022/07/12 00:50:17;;;;;;;3.33;1.00;;;22.90;73.90;;;;;;5078722;28;20143;-66
2022/07/12 00:52:44;;;;;;;;;;;23.00;73.80;;;;;;5046934;28;20026;-66
2022/07/12 00:55:11;;;;;;;2.13;1.00;;;23.00;74.00;;;;;;5046446;28;19901;-66
2022/07/12 00:57:39;;;;;;;2.28;1.02;;;22.80;74.00;;;;;;5046412;28;20092;-66
2022/07/12 01:00:08;;;;;;;1.40;1.05;;;22.80;73.90;;;;;;5078424;28;20041;-66
2022/07/12 01:02:35;;;;;;;2.03;1.23;;;22.80;73.90;;;;;;5046462;28;20029;-66
2022/07/12 01:05:02;;;;;;;1.40;1.30;;;22.90;74.10;;;;;;5078399;28;20021;-67
2022/07/12 01:07:28;;;;;;;2.45;0.93;;;22.90;74.00;;;;;;5078222;28;20025;-66
2022/07/12 01:09:55;;;;;;;2.08;1.10;;;22.90;74.00;;;;;;5077119;28;20028;-65
2022/07/12 01:12:22;;;;;;;2.25;0.98;;;22.90;73.80;;;;;;5078634;28;20021;-66
2022/07/12 01:14:49;;;;;;;1.52;1.05;;;22.90;74.00;;;;;;5077951;28;20021;-66
2022/07/12 01:17:19;;;;;;;3.70;1.00;;;22.80;74.30;;;;;;5044872;28;20024;-66
2022/07/12 01:19:45;;;;;;;2.78;1.00;;;22.80;74.60;;;;;;5046330;28;20071;-66
2022/07/12 01:22:14;;;;;;;4.78;1.08;;;22.80;74.10;;;;;;5046038;28;20096;-66
2022/07/12 01:24:41;;;;;;;2.22;1.33;;;22.90;73.90;;;;;;5045938;28;20017;-66
2022/07/12 01:27:07;;;;;;;1.13;0.77;;;22.90;73.70;;;;;;5046114;28;20064;-66
2022/07/12 01:29:33;;;;;;;2.97;1.60;;;22.90;73.30;;;;;;5078253;28;20063;-66
2022/07/12 01:32:24;;;;;;;6.93;1.13;;;22.90;73.50;;;;;;5078288;28;20029;-66
2022/07/12 01:34:48;;;;;;;2.67;1.08;;;22.80;74.10;;;;;;5044646;28;20033;-65
2022/07/12 01:37:15;;;;;;;3.42;0.90;;;22.60;74.70;;;;;;5045871;28;20029;-66
2022/07/12 01:39:42;;;;;;;2.85;1.13;;;22.50;76.20;;;;;;5078198;28;20048;-65
2022/07/12 01:42:08;;;;;;;1.73;1.27;;;22.40;77.50;;;;;;5044526;28;20227;-66
2022/07/12 01:44:34;;;;;;;2.05;1.73;;;22.20;78.60;;;;;;5045590;28;20018;-66
2022/07/12 01:47:00;;;;;;;3.85;1.40;;;22.10;79.30;;;;;;5044495;28;20374;-66
2022/07/12 01:49:25;;;;;;;1.75;1.05;;;22.00;79.70;;;;;;5045619;28;20088;-66
2022/07/12 01:51:54;;;;;;;2.25;1.42;;;22.00;80.20;;;;;;5077761;28;20104;-66
2022/07/12 01:54:19;;;;;;;2.65;1.10;;;21.90;80.50;;;;;;5045440;28;20025;-67
2022/07/12 01:56:45;;;;;;;1.15;0.90;;;21.90;80.30;;;;;;5045644;28;20335;-66
2022/07/12 01:59:11;;;;;;;3.35;1.10;;;21.90;79.70;;;;;;5045028;28;20053;-67
2022/07/12 02:01:38;;;;;;;3.70;1.10;;;21.90;79.40;;;;;;5045387;28;20033;-66
2022/07/12 02:04:04;;;;;;;2.92;1.20;;;21.90;79.70;;;;;;5045254;28;20056;-66
2022/07/12 02:06:30;;;;;;;2.63;1.33;;;21.70;80.40;;;;;;5077350;28;20026;-65
2022/07/12 02:08:55;;;;;;;2.05;1.38;;;21.70;80.80;;;;;;5044258;28;20271;-66
2022/07/12 02:11:21;;;;;;;3.47;1.40;;;21.60;82.70;;;;;;5042354;28;20041;-67
2022/07/12 02:13:47;;;;;;;3.22;1.35;;;21.60;83.60;;;;;;5077346;28;20017;-66
2022/07/12 02:16:13;;;;;;;2.78;1.70;;;21.60;83.80;;;;;;5044891;28;20078;-65
2022/07/12 02:18:38;;;;;;;3.33;1.83;;;21.60;84.00;;;;;;5045078;28;20021;-66
2022/07/12 02:21:04;;;;;;;4.57;1.60;;;21.60;84.00;;;;;;5044971;28;20038;-66
2022/07/12 02:23:30;;;;;;;1.95;1.50;;;21.70;84.00;;;;;;5045021;28;20022;-66
2022/07/12 02:25:56;;;;;;;3.80;1.77;;;21.70;84.30;;;;;;5043540;28;20029;-65
2022/07/12 02:28:21;;;;;;;3.30;1.42;;;21.70;84.20;;;;;;5044408;28;20200;-66
2022/07/12 02:30:47;;;;;;;3.00;1.45;;;21.70;84.10;;;;;;5044856;28;20032;-65
2022/07/12 02:33:15;;;;;;;2.70;1.52;;;21.70;84.30;;;;;;5044754;28;20023;-66
2022/07/12 02:35:41;;;;;;;1.48;1.38;;;21.70;84.50;;;;;;5043366;28;20028;-66
2022/07/12 02:38:07;;;;;;;24.65;2.80;;;21.70;84.60;;;;;;5044668;28;20025;-66
2022/07/12 02:43:22;;;;;;;20.80;2.50;;;21.50;85.60;;;;;;5043796;28;20060;-66
2022/07/12 02:45:48;;;;;;;5.10;1.83;;;21.50;85.80;;;;;;5076434;28;20277;-66
2022/07/12 02:48:14;;;;;;;5.30;1.95;;;21.40;86.20;;;;;;5076650;28;20040;-66
2022/07/12 02:50:40;;;;;;;5.18;2.15;;;21.40;86.40;;;;;;5044229;28;20021;-66
2022/07/12 02:53:06;;;;;;;7.50;2.40;;;21.20;86.30;;;;;;5044043;28;20354;-66
2022/07/12 02:55:32;;;;;;;6.88;2.25;;;21.10;86.70;;;;;;5059772;28;20068;-66
2022/07/12 02:57:57;;;;;;;2.17;1.52;;;21.00;87.30;;;;;;5076168;28;20021;-66
2022/07/12 03:00:23;;;;;;;3.45;1.60;;;20.90;88.40;;;;;;5044363;28;20239;-65
2022/07/12 03:02:49;;;;;;;5.47;2.00;;;20.80;88.20;;;;;;5044184;28;20049;-66
2022/07/12 03:05:15;;;;;;;2.60;1.58;;;20.80;88.30;;;;;;5044088;28;20053;-66
2022/07/12 03:07:40;;;;;;;3.75;2.00;;;20.80;88.40;;;;;;5044109;28;20088;-67
2022/07/12 03:10:06;;;;;;;4.07;2.40;;;20.70;88.30;;;;;;5044189;28;20021;-66
2022/07/12 03:12:33;;;;;;;6.22;2.40;;;20.80;88.10;;;;;;5042442;28;20029;-66
2022/07/12 03:14:59;;;;;;;2.65;2.20;;;20.80;88.20;;;;;;5044010;28;20028;-66
2022/07/12 03:17:24;;;;;;;2.08;1.88;;;20.80;88.40;;;;;;5043741;28;20021;-66
2022/07/12 03:19:50;;;;;;;3.38;2.30;;;20.80;88.30;;;;;;5076411;28;20096;-66
2022/07/12 03:22:15;;;;;;;6.15;2.60;;;20.70;88.20;;;;;;5043912;28;20091;-66
2022/07/12 03:24:41;;;;;;;3.35;1.70;;;20.70;88.20;;;;;;5043978;28;20021;-66
2022/07/12 03:27:07;;;;;;;4.60;1.60;;;20.70;88.20;;;;;;5043876;28;20375;-66
2022/07/12 03:29:33;;;;;;;4.95;1.60;;;20.70;88.00;;;;;;5043560;28;20021;-66
2022/07/12 03:31:58;;;;;;;2.42;1.77;;;20.70;88.30;;;;;;5044081;28;20021;-65
2022/07/12 03:34:24;;;;;;;3.67;1.83;;;20.60;88.40;;;;;;5043802;28;20045;-66
2022/07/12 03:36:50;;;;;;;5.53;1.83;;;20.70;88.80;;;;;;5075949;28;20025;-66
2022/07/12 03:39:15;;;;;;;4.00;1.50;;;20.70;87.90;;;;;;5043965;28;20204;-66
2022/07/12 03:41:41;;;;;;;3.63;1.60;;;20.70;87.70;;;;;;5079589;28;20045;-66
2022/07/12 03:44:07;;;;;;;3.30;1.60;;;20.70;87.20;;;;;;5047904;28;20438;-66
2022/07/12 03:46:33;;;;;;;3.65;1.67;;;20.80;87.20;;;;;;5047803;28;20055;-66
2022/07/12 03:48:59;;;;;;;2.15;1.50;;;20.90;86.80;;;;;;5047964;28;20269;-67
2022/07/12 03:51:25;;;;;;;3.70;1.30;;;21.00;86.30;;;;;;5079862;28;20075;-66
2022/07/12 03:53:51;;;;;;;3.33;1.30;;;21.00;86.20;;;;;;5047665;28;20085;-66
2022/07/12 03:59:02;;;;;;;5.40;1.50;;;20.90;86.50;;;;;;5060068;28;20312;-66
2022/07/12 04:01:28;;;;;;;4.80;1.50;;;21.00;86.40;;;;;;5046302;28;20070;-65
2022/07/12 04:03:56;;;;;;;6.15;1.80;;;21.00;86.30;;;;;;5046314;28;20067;-65
2022/07/12 04:06:21;;;;;;;4.28;2.00;;;20.80;86.80;;;;;;5045990;28;20017;-65
2022/07/12 04:08:47;;;;;;;7.97;1.70;;;20.80;86.90;;;;;;5046300;28;20021;-66
2022/07/12 04:11:13;;;;;;;7.13;1.50;;;20.80;86.70;;;;;;5078011;28;20025;-66
2022/07/12 04:13:39;;;;;;;7.60;1.73;;;20.90;86.20;;;;;;5077061;28;20021;-66
2022/07/12 04:16:05;;;;;;;4.60;1.48;;;21.00;86.00;;;;;;5046093;28;20040;-66
2022/07/12 04:18:31;;;;;;;8.80;2.00;;;21.00;85.90;;;;;;5045892;28;20024;-66
2022/07/12 04:20:56;;;;;;;15.77;2.70;;;21.00;86.00;;;;;;5045936;28;20301;-67
2022/07/12 04:23:22;;;;;;;5.68;1.65;;;21.00;85.60;;;;;;5078165;28;20025;-65
2022/07/12 04:25:48;;;;;;;35.60;3.67;;;21.00;86.90;;;;;;5045970;28;20025;-66
2022/07/12 04:28:13;;;;;;;20.98;2.65;;;20.90;87.70;;;;;;5045440;28;20024;-66
2022/07/12 04:30:39;;;;;;;5.40;1.55;;;20.80;87.80;;;;;;5045879;28;20212;-66
2022/07/12 04:33:05;;;;;;;4.57;1.45;;;20.80;87.40;;;;;;5045807;28;20022;-66
2022/07/12 04:35:31;;;;;;;5.28;1.50;;;20.80;87.20;;;;;;5045586;28;20048;-66
2022/07/12 04:37:57;;;;;;;3.58;1.65;;;20.80;87.40;;;;;;5045494;28;20033;-65
2022/07/12 04:40:23;;;;;;;5.75;1.60;;;20.80;86.70;;;;;;5045730;28;20027;-66
2022/07/12 04:42:48;;;;;;;3.90;1.27;;;20.90;87.00;;;;;;5044487;28;20037;-65
2022/07/12 04:45:14;;;;;;;3.17;1.70;;;20.80;86.30;;;;;;5045522;28;20026;-66
2022/07/12 04:47:40;;;;;;;43.38;8.57;;;20.80;87.10;;;;;;5077635;28;20304;-66
2022/07/12 04:50:07;;;;;;;34.53;6.25;;;20.90;87.10;;;;;;5045900;28;20067;-65
2022/07/12 04:52:34;;;;;;;24.40;4.22;;;20.80;87.10;;;;;;5077229;28;20076;-65
2022/07/12 04:55:00;;;;;;;30.13;4.90;;;20.90;86.70;;;;;;5077668;28;20028;-64
2022/07/12 04:57:26;;;;;;;10.13;2.38;;;20.80;86.80;;;;;;5044999;28;20269;-65
2022/07/12 04:59:52;;;;;;;6.30;2.60;;;20.80;86.70;;;;;;5021860;28;742267;-65
2022/07/12 05:02:17;;;;;;;8.30;2.67;;;20.80;86.70;;;;;;5044947;28;20037;-65
2022/07/12 05:04:44;;;;;;;8.65;2.60;;;20.70;87.00;;;;;;5046218;28;20025;-66
2022/07/12 05:07:09;;;;;;;2.75;1.40;;;20.70;87.10;;;;;;5046513;28;20021;-65
2022/07/12 05:09:35;;;;;;;3.83;1.40;;;20.70;87.10;;;;;;5046191;28;20200;-65
2022/07/12 05:12:00;;;;;;;6.25;1.88;;;20.70;87.00;;;;;;5046062;28;20193;-66
2022/07/12 05:14:26;;;;;;;2.80;1.30;;;20.70;87.00;;;;;;5044648;28;20021;-65
2022/07/12 05:16:52;;;;;;;7.95;1.80;;;20.80;86.80;;;;;;5046273;28;20029;-66
2022/07/12 05:19:18;;;;;;;2.85;1.67;;;20.80;87.00;;;;;;5045911;28;20022;-65
2022/07/12 05:21:44;;;;;;;4.93;1.50;;;20.80;86.90;;;;;;5046323;28;20032;-65
2022/07/12 05:24:09;;;;;;;3.80;1.55;;;20.90;87.10;;;;;;5045979;28;20025;-68
2022/07/12 05:26:35;;;;;;;6.00;1.45;;;20.90;87.20;;;;;;5046245;28;20365;-65
2022/07/12 05:29:01;;;;;;;2.50;1.60;;;20.80;87.00;;;;;;5045442;28;20072;-67
2022/07/12 05:31:26;;;;;;;6.82;1.60;;;20.80;87.20;;;;;;5044995;28;20017;-64
2022/07/12 05:33:52;;;;;;;3.97;1.85;;;20.90;87.10;;;;;;5045738;28;20026;-65
2022/07/12 05:36:18;;;;;;;3.72;1.80;;;20.90;87.40;;;;;;5077973;28;20029;-67
2022/07/12 05:38:44;;;;;;;2.13;1.50;;;20.90;87.40;;;;;;5045649;28;20079;-65
2022/07/12 05:41:10;;;;;;;3.13;1.55;;;20.90;87.40;;;;;;5045678;28;20036;-64
2022/07/12 05:43:35;;;;;;;2.08;1.70;;;21.00;87.30;;;;;;5045812;28;20033;-67
2022/07/12 05:46:01;;;;;;;5.88;1.63;;;21.10;87.00;;;;;;5045232;28;20025;-65
2022/07/12 05:48:27;;;;;;;3.88;1.70;;;21.20;86.70;;;;;;5077551;28;20111;-67
2022/07/12 05:50:53;;;;;;;3.95;1.80;;;21.30;86.40;;;;;;5045228;28;20029;-67
2022/07/12 05:53:21;;;;;;;5.60;2.10;;;21.20;86.50;;;;;;5045464;28;20097;-67
2022/07/12 05:55:49;;;;;;;4.00;1.77;;;21.30;86.70;;;;;;5076790;28;20021;-68
2022/07/12 05:58:14;;;;;;;3.08;1.33;;;21.40;86.50;;;;;;5045026;28;20018;-66
2022/07/12 06:00:40;;;;;;;7.10;1.70;;;21.40;86.20;;;;;;5043833;28;20076;-66
2022/07/12 06:03:05;;;;;;;8.75;2.08;;;21.50;86.00;;;;;;5044589;28;20083;-66
2022/07/12 06:05:31;;;;;;;9.15;2.30;;;21.60;86.00;;;;;;5045172;28;20032;-66
2022/07/12 06:07:57;;;;;;;6.38;1.80;;;21.60;85.90;;;;;;5044123;28;20022;-65
2022/07/12 06:10:22;;;;;;;6.97;2.10;;;21.70;85.60;;;;;;5045257;28;20017;-68
2022/07/12 06:12:48;;;;;;;8.20;1.88;;;21.60;86.00;;;;;;5045201;28;20068;-66
2022/07/12 06:15:14;;;;;;;10.55;2.15;;;21.70;84.90;;;;;;5043571;28;20022;-66
2022/07/12 06:17:40;;;;;;;10.60;2.20;;;21.80;84.90;;;;;;5077282;28;20032;-65
2022/07/12 06:20:06;;;;;;;34.05;4.40;;;21.80;83.90;;;;;;5044949;28;20026;-67
2022/07/12 06:22:32;;;;;;;43.88;6.75;;;22.00;83.50;;;;;;5045004;28;20071;-67
2022/07/12 06:24:58;;;;;;;25.25;4.15;;;22.00;83.30;;;;;;5076943;28;20026;-67
2022/07/12 06:27:23;;;;;;;17.05;3.17;;;22.10;83.40;;;;;;5044654;28;20040;-68
2022/07/12 06:29:49;;;;;;;15.45;2.67;;;22.20;82.90;;;;;;5044749;28;20030;-67
2022/07/12 06:32:16;;;;;;;8.43;1.73;;;22.20;83.00;;;;;;5044752;28;20045;-67
2022/07/12 06:34:42;;;;;;;7.88;2.15;;;22.20;82.70;;;;;;5076492;28;20056;-66
2022/07/12 06:37:08;;;;;;;10.73;1.80;;;22.10;83.10;;;;;;5044686;28;20021;-65
2022/07/12 06:39:35;;;;;;;7.90;2.08;;;22.10;83.30;;;;;;5044456;28;20022;-66
2022/07/12 06:42:05;;;;;;;12.05;2.00;;;22.20;82.70;;;;;;5044575;28;20071;-68
2022/07/12 06:44:31;;;;;;;7.95;1.92;;;22.20;82.90;;;;;;5043254;28;20037;-68
2022/07/12 06:46:58;;;;;;;6.38;2.08;;;22.30;82.70;;;;;;5058011;28;20017;-67
2022/07/12 06:49:24;;;;;;;5.35;2.30;;;22.30;82.60;;;;;;5063142;28;20439;-69
2022/07/12 06:51:49;;;;;;;3.30;1.92;;;22.40;82.30;;;;;;5064404;28;20032;-67
2022/07/12 06:54:15;;;;;;;17.65;2.63;;;22.60;81.80;;;;;;5050698;28;20044;-67
2022/07/12 06:56:41;;;;;;;12.57;2.50;;;22.70;82.00;;;;;;5044395;28;20018;-68
2022/07/12 06:59:10;;;;;;;5.70;2.08;;;22.80;81.20;;;;;;5043603;28;20049;-68
2022/07/12 07:01:36;;;;;;;2.97;1.90;;;23.00;81.20;;;;;;5043793;28;20052;-69
2022/07/12 07:04:02;;;;;;;5.93;1.67;;;23.10;80.40;;;;;;5042885;28;20220;-69
2022/07/12 07:06:28;;;;;;;5.68;1.75;;;23.20;80.10;;;;;;5044146;28;20025;-69
2022/07/12 07:08:54;;;;;;;4.50;1.98;;;23.40;79.50;;;;;;5043077;28;20063;-69
2022/07/12 07:11:19;;;;;;;8.60;2.33;;;23.70;79.10;;;;;;5043982;28;20140;-68
2022/07/12 07:13:45;;;;;;;5.95;1.70;;;23.80;79.40;;;;;;5043159;28;20029;-71
2022/07/12 07:16:11;;;;;;;14.57;2.67;;;23.90;78.70;;;;;;5042345;28;20089;-69
2022/07/12 07:18:36;;;;;;;15.60;2.42;;;24.10;78.30;;;;;;5062224;28;20025;-71
2022/07/12 07:21:02;;;;;;;8.75;2.45;;;24.30;76.90;;;;;;5063356;28;20228;-70
2022/07/12 07:23:28;;;;;;;7.88;2.20;;;24.60;75.70;;;;;;5044377;28;20033;-70
2022/07/12 07:25:53;;;;;;;12.38;2.03;;;24.80;74.00;;;;;;5043153;28;20021;-69
2022/07/12 07:28:20;;;;;;;13.05;2.08;;;24.90;74.20;;;;;;5075123;28;20107;-71
2022/07/12 07:30:52;;;;;;;3.05;1.10;;;25.00;74.20;;;;;;5041474;28;20020;-71
2022/07/12 07:33:19;;;;;;;2.05;1.00;;;25.20;68.90;;;;;;5043121;28;20036;-68
2022/07/12 07:35:46;;;;;;;6.57;1.40;;;25.30;68.70;;;;;;5042434;28;20025;-68
2022/07/12 07:38:12;;;;;;;5.45;1.38;;;25.40;68.90;;;;;;5042935;28;20319;-70
2022/07/12 07:40:38;;;;;;;10.18;1.25;;;25.40;70.10;;;;;;5043305;28;20037;-68
2022/07/12 07:43:03;;;;;;;10.40;1.60;;;25.50;67.40;;;;;;5041961;28;20092;-68
2022/07/12 07:45:29;;;;;;;5.75;1.67;;;25.60;67.70;;;;;;5043335;28;20033;-70
2022/07/12 07:47:55;;;;;;;8.77;1.80;;;25.60;67.10;;;;;;5043272;28;20301;-69
2022/07/12 07:50:20;;;;;;;5.95;1.30;;;25.70;67.20;;;;;;5041962;28;20030;-70
2022/07/12 07:52:48;;;;;;;10.07;1.73;;;25.80;66.60;;;;;;5042302;28;20037;-69
2022/07/12 07:55:14;;;;;;;5.00;1.10;;;25.80;66.30;;;;;;5041975;28;20017;-69
2022/07/12 07:57:40;;;;;;;8.75;1.58;;;25.80;65.80;;;;;;5042327;28;20018;-69
2022/07/12 08:00:06;;;;;;;4.50;1.27;;;25.80;66.00;;;;;;5043075;28;20048;-70
2022/07/12 08:02:31;;;;;;;8.90;1.45;;;25.90;65.70;;;;;;5041231;28;20040;-70
2022/07/12 08:04:57;;;;;;;9.00;1.35;;;26.10;65.40;;;;;;5042539;28;20021;-70
2022/07/12 08:07:23;;;;;;;6.47;1.33;;;26.10;65.60;;;;;;5042741;28;20033;-70
2022/07/12 08:09:48;;;;;;;6.82;1.17;;;26.10;64.80;;;;;;5043022;28;20021;-69
2022/07/12 08:12:14;;;;;;;8.10;1.50;;;26.20;65.10;;;;;;5041175;28;20020;-70
2022/07/12 08:14:40;;;;;;;7.03;1.05;;;26.30;64.70;;;;;;5042468;28;20021;-69
2022/07/12 08:17:05;;;;;;;15.57;1.63;;;26.30;64.30;;;;;;5041778;28;20044;-70
2022/07/12 08:19:31;;;;;;;9.98;1.67;;;26.20;64.60;;;;;;5041899;28;20304;-68
2022/07/12 08:21:57;;;;;;;6.05;1.52;;;26.30;65.20;;;;;;5041036;28;20033;-69
2022/07/12 08:24:22;;;;;;;22.08;2.65;;;26.50;65.10;;;;;;5054697;28;20074;-71
2022/07/12 08:26:49;;;;;;;11.65;1.50;;;26.70;65.00;;;;;;5052840;28;20122;-70
2022/07/12 08:29:15;;;;;;;10.35;1.30;;;26.90;63.90;;;;;;5043361;28;20022;-71
2022/07/12 08:31:41;;;;;;;7.35;1.35;;;27.10;63.40;;;;;;5045064;28;20075;-69
2022/07/12 08:34:06;;;;;;;9.98;1.52;;;26.90;63.60;;;;;;5063702;28;20025;-69
2022/07/12 08:36:32;;;;;;;10.68;1.88;;;27.30;63.60;;;;;;5065056;28;20339;-69
2022/07/12 08:38:58;;;;;;;4.93;1.40;;;27.50;63.60;;;;;;5055237;28;20033;-69
2022/07/12 08:41:24;;;;;;;7.18;1.63;;;27.80;63.00;;;;;;5044803;28;20089;-69
2022/07/12 08:43:49;;;;;;;13.45;1.73;;;27.90;62.10;;;;;;5046117;28;20040;-69
2022/07/12 08:46:15;;;;;;;12.50;1.58;;;28.10;62.40;;;;;;5048140;28;20033;-69
2022/07/12 08:48:43;;;;;;;12.38;1.77;;;28.00;62.20;;;;;;5064694;28;20017;-69
2022/07/12 08:51:12;;;;;;;10.90;1.30;;;28.10;62.70;;;;;;5064098;28;20096;-69
2022/07/12 08:53:38;;;;;;;11.68;1.80;;;28.20;63.10;;;;;;5064841;28;20028;-69
2022/07/12 08:56:06;;;;;;;7.60;1.58;;;28.20;64.20;;;;;;5055227;28;20052;-69
2022/07/12 08:58:32;;;;;;;6.80;1.42;;;27.90;65.60;;;;;;5043850;28;20017;-69
2022/07/12 09:00:58;;;;;;;2.65;1.30;;;27.50;66.00;;;;;;5054728;28;20060;-69
2022/07/12 09:03:23;;;;;;;5.30;1.30;;;27.30;66.60;;;;;;5057767;28;20047;-70
2022/07/12 09:05:51;;;;;;;4.35;1.42;;;27.30;66.10;;;;;;5064057;28;20083;-68
2022/07/12 09:08:19;;;;;;;5.93;1.33;;;27.10;65.60;;;;;;5064407;28;20336;-69
2022/07/12 09:10:54;;;;;;;3.72;1.25;;;27.10;65.60;;;;;;5055663;28;20036;-70
2022/07/12 09:13:40;;;;;;;12.70;1.63;;;27.30;64.30;;;;;;5044344;28;20021;-69
2022/07/12 09:16:23;;;;;;;3.92;1.00;;;27.50;64.40;;;;;;5042596;28;20089;-69
2022/07/12 09:18:50;;;;;;;3.33;1.20;;;27.70;62.70;;;;;;5042310;28;20022;-68
2022/07/12 09:21:25;;;;;;;6.43;1.00;;;27.90;62.80;;;;;;5047840;28;20037;-68
2022/07/12 09:23:55;;;;;;;2.60;1.00;;;27.90;61.60;;;;;;5042331;28;20026;-70
2022/07/12 09:26:21;;;;;;;4.00;1.15;;;27.90;61.40;;;;;;5044354;28;20365;-70
2022/07/12 09:28:50;;;;;;;4.18;1.30;;;27.80;61.90;;;;;;5043729;28;20013;-68
2022/07/12 09:31:16;;;;;;;5.40;1.33;;;27.90;62.00;;;;;;5043336;28;20021;-71
2022/07/12 09:36:27;;;;;;;8.80;1.48;;;27.70;62.30;;;;;;5061899;28;20029;-69
2022/07/12 09:39:00;;;;;;;7.00;1.35;;;27.80;61.70;;;;;;5055417;28;20212;-67
2022/07/12 09:41:26;;;;;;;4.65;1.10;;;28.00;61.90;;;;;;5043712;28;20079;-69
2022/07/12 09:43:53;;;;;;;10.70;1.30;;;28.30;61.10;;;;;;5059929;28;20312;-68
2022/07/12 09:46:19;;;;;;;5.55;1.17;;;28.50;61.30;;;;;;5043992;28;20041;-68
2022/07/12 09:48:46;;;;;;;7.22;1.35;;;28.80;62.00;;;;;;5044707;28;20154;-69
2022/07/12 09:51:17;;;;;;;8.70;1.45;;;28.90;61.00;;;;;;5048895;28;20217;-69
2022/07/12 09:53:46;;;;;;;4.80;1.25;;;28.90;61.30;;;;;;5044042;28;20029;-68
2022/07/12 09:56:13;;;;;;;5.70;1.52;;;28.90;60.70;;;;;;5043110;28;20033;-68
2022/07/12 09:58:50;;;;;;;6.47;1.10;;;28.90;60.50;;;;;;5026021;28;20018;-68
2022/07/12 10:01:16;;;;;;;6.05;1.77;;;28.90;61.10;;;;;;5042779;28;20299;-68
2022/07/12 10:03:43;;;;;;;11.15;1.60;;;28.70;60.50;;;;;;5059029;28;20025;-67
2022/07/12 10:06:09;;;;;;;3.70;1.30;;;28.50;62.10;;;;;;5059264;28;20071;-67
2022/07/12 10:08:35;;;;;;;6.97;1.40;;;28.80;61.50;;;;;;5043451;28;20025;-69
2022/07/12 10:11:01;;;;;;;7.38;1.38;;;28.90;61.20;;;;;;5058974;28;20032;-67
2022/07/12 10:13:30;;;;;;;9.80;1.42;;;29.20;60.40;;;;;;5042788;28;20025;-67
2022/07/12 10:16:00;;;;;;;5.68;1.40;;;29.30;60.20;;;;;;5041440;28;20034;-68
2022/07/12 10:18:27;;;;;;;9.23;1.38;;;29.30;60.00;;;;;;5048696;28;20025;-71
2022/07/12 10:20:53;;;;;;;12.43;1.58;;;29.30;59.70;;;;;;5044128;28;20071;-66
2022/07/12 10:23:33;;;;;;;15.52;2.05;;;29.40;60.00;;;;;;5043623;28;20043;-68
2022/07/12 10:26:00;;;;;;;12.45;1.23;;;29.60;60.30;;;;;;5043074;28;20033;-68
2022/07/12 10:29:02;;;;;;;8.40;1.45;;;29.30;59.80;;;;;;5044039;28;20032;-72
2022/07/12 10:31:32;;;;;;;4.50;1.20;;;29.30;59.80;;;;;;5050190;28;20017;-68
2022/07/12 10:34:20;;;;;;;12.98;1.63;;;29.30;59.80;;;;;;5062184;28;20100;-70
2022/07/12 10:37:08;;;;;;;4.38;1.20;;;29.30;60.30;;;;;;5046083;28;20315;-67
2022/07/12 10:39:33;;;;;;;12.57;1.45;;;29.40;59.90;;;;;;5048030;28;20044;-68
2022/07/12 10:42:16;;;;;;;3.92;1.20;;;29.40;60.10;;;;;;5042416;28;20045;-70
2022/07/12 10:44:46;;;;;;;5.57;1.52;;;29.50;59.80;;;;;;5041878;28;20041;-68
2022/07/12 10:47:14;;;;;;;3.67;0.90;;;29.40;60.40;;;;;;5043457;28;20029;-70
2022/07/12 10:49:47;;;;;;;3.92;1.00;;;29.30;60.10;;;;;;5041751;28;20044;-68
2022/07/12 10:52:16;;;;;;;2.15;1.10;;;29.20;60.10;;;;;;5057811;28;20220;-69
2022/07/12 10:55:07;;;;;;;8.95;1.40;;;29.10;60.10;;;;;;5041809;28;20322;-71
2022/07/12 10:57:51;;;;;;;6.72;1.20;;;28.90;60.90;;;;;;5053899;28;20025;-71
2022/07/12 11:00:22;;;;;;;2.92;1.23;;;29.20;60.70;;;;;;5039877;28;20049;-70
2022/07/12 11:02:49;;;;;;;6.80;1.05;;;29.30;59.90;;;;;;5041479;28;20041;-68
2022/07/12 11:05:15;;;;;;;3.78;1.00;;;29.20;59.70;;;;;;5042754;28;20103;-70
2022/07/12 11:07:41;;;;;;;7.18;1.02;;;29.10;59.70;;;;;;5043449;28;20323;-70
2022/07/12 11:10:07;;;;;;;6.50;1.27;;;29.40;59.60;;;;;;5043301;28;20036;-69
2022/07/12 11:12:36;;;;;;;4.75;1.00;;;29.50;59.10;;;;;;5042759;28;20026;-68
2022/07/12 11:15:03;;;;;;;5.47;0.98;;;29.60;59.00;;;;;;5042605;28;20132;-68
2022/07/12 11:17:30;;;;;;;3.97;1.08;;;29.70;58.80;;;;;;5040912;28;20033;-69
2022/07/12 11:20:09;;;;;;;7.57;1.27;;;29.60;59.10;;;;;;5041930;28;20013;-67
2022/07/12 11:22:36;;;;;;;4.28;0.95;;;29.90;58.60;;;;;;5061256;28;20366;-69
2022/07/12 11:25:03;;;;;;;2.72;0.93;;;30.00;58.00;;;;;;5060907;28;20298;-68
2022/07/12 11:27:29;;;;;;;2.22;1.17;;;30.10;58.60;;;;;;5062417;28;20033;-69
2022/07/12 11:29:58;;;;;;;3.88;1.20;;;30.50;58.60;;;;;;5062554;28;20040;-70
2022/07/12 11:32:34;;;;;;;2.13;1.20;;;30.30;58.60;;;;;;5062740;28;20021;-69
2022/07/12 11:34:59;;;;;;;2.95;0.80;;;30.10;58.90;;;;;;5051378;28;20034;-68
2022/07/12 11:37:25;;;;;;;2.85;1.17;;;30.00;59.20;;;;;;5041390;28;20327;-68
2022/07/12 11:39:51;;;;;;;4.28;0.90;;;29.90;60.00;;;;;;5040038;28;20029;-69
2022/07/12 11:42:16;;;;;;;2.22;0.73;;;29.80;60.60;;;;;;5039651;28;20263;-70
2022/07/12 11:44:52;;;;;;;3.08;1.20;;;29.70;61.10;;;;;;5040876;28;20021;-70
2022/07/12 11:47:20;;;;;;;3.08;0.95;;;29.70;60.60;;;;;;5041440;28;20075;-69
2022/07/12 11:49:48;;;;;;;1.88;1.00;;;29.80;60.40;;;;;;5042258;28;20052;-68
2022/07/12 11:52:17;;;;;;;2.72;1.00;;;29.70;60.60;;;;;;5040184;28;20558;-70
2022/07/12 11:54:44;;;;;;;6.57;1.10;;;30.00;60.60;;;;;;5040489;28;20025;-69
2022/07/12 11:57:11;;;;;;;5.75;1.55;;;30.40;60.40;;;;;;5042134;28;20028;-68
2022/07/12 11:59:36;;;;;;;7.00;1.40;;;30.80;60.20;;;;;;5041315;28;20052;-70
2022/07/12 12:02:04;;;;;;;6.95;1.70;;;30.90;60.00;;;;;;5044283;28;20267;-69
2022/07/12 12:04:30;;;;;;;2.67;0.90;;;31.00;60.20;;;;;;5046152;28;20029;-70
2022/07/12 12:06:56;;;;;;;5.10;0.90;;;31.00;59.70;;;;;;5047109;28;20044;-70
2022/07/12 12:09:21;;;;;;;3.22;1.15;;;31.20;59.50;;;;;;5046414;28;20021;-71
2022/07/12 12:11:47;;;;;;;5.93;1.40;;;31.30;59.30;;;;;;5046018;28;20030;-69
2022/07/12 12:14:13;;;;;;;4.82;1.10;;;31.20;59.60;;;;;;5046238;28;20315;-68
2022/07/12 12:16:38;;;;;;;7.38;1.42;;;31.30;59.20;;;;;;5045656;28;20032;-69
2022/07/12 12:19:11;;;;;;;2.95;1.23;;;30.80;59.60;;;;;;5044441;28;20045;-70
2022/07/12 12:21:37;;;;;;;2.38;1.15;;;30.50;60.10;;;;;;5045567;28;20092;-69
2022/07/12 12:24:10;;;;;;;3.63;1.55;;;30.30;60.70;;;;;;5045144;28;20024;-70
2022/07/12 12:26:36;;;;;;;3.40;1.15;;;30.40;60.70;;;;;;5045618;28;20029;-71
2022/07/12 12:29:02;;;;;;;6.30;1.10;;;30.50;59.60;;;;;;5061231;28;20083;-71
2022/07/12 12:31:31;;;;;;;4.65;1.45;;;30.40;59.40;;;;;;5046072;28;20028;-69
2022/07/12 12:33:56;;;;;;;1.98;1.00;;;30.30;60.30;;;;;;5043845;28;20024;-68
2022/07/12 12:36:25;;;;;;;1.90;1.20;;;30.20;60.60;;;;;;5044361;28;20025;-68
2022/07/12 12:38:53;;;;;;;4.20;1.05;;;30.10;60.60;;;;;;5059806;28;20190;-70
2022/07/12 12:41:22;;;;;;;8.63;1.42;;;30.10;60.50;;;;;;5060523;28;20030;-71
2022/07/12 12:44:00;;;;;;;5.55;1.13;;;30.10;60.90;;;;;;5044619;28;20021;-70
2022/07/12 12:46:55;;;;;;;5.43;1.17;;;30.20;61.00;;;;;;5044511;28;20021;-70
2022/07/12 12:49:45;;;;;;;2.95;0.95;;;30.40;60.20;;;;;;5036114;28;20029;-69
2022/07/12 12:52:10;;;;;;;3.45;0.80;;;30.70;60.10;;;;;;5012872;28;20096;-70
2022/07/12 12:54:38;;;;;;;2.78;1.00;;;31.00;59.30;;;;;;5045002;28;20024;-69